sensor_id;sensor_type;location;lat;lon;timestamp;temperature;humidity
19025;DHT22;9645;51.448;6.260;2023-12-22T00:01:17;5.40;99.90
19025;DHT22;9645;51.448;6.260;2023-12-22T00:03:44;5.50;99.90
19025;DHT22;9645;51.448;6.260;2023-12-22T00:06:13;5.50;99.90
19025;DHT22;9645;51.448;6.260;2023-12-22T00:08:40;5.60;99.90
19025;DHT22;9645;51.448;6.260;2023-12-22T00:11:08;5.60;99.90
19025;DHT22;9645;51.448;6.260;2023-12-22T00:13:38;5.60;99.90
19025;DHT22;9645;51.448;6.260;2023-12-22T00:16:06;5.60;99.90
19025;DHT22;9645;51.448;6.260;2023-12-22T00:18:34;5.70;99.90
19025;DHT22;9645;51.448;6.260;2023-12-22T00:21:01;5.70;99.90
19025;DHT22;9645;51.448;6.260;2023-12-22T00:23:30;5.80;99.90
19025;DHT22;9645;51.448;6.260;2023-12-22T00:26:01;5.80;99.90
19025;DHT22;9645;51.448;6.260;2023-12-22T00:28:29;5.80;99.90
19025;DHT22;9645;51.448;6.260;2023-12-22T00:30:58;5.80;99.90
19025;DHT22;9645;51.448;6.260;2023-12-22T00:33:25;5.80;99.90
19025;DHT22;9645;51.448;6.260;2023-12-22T00:35:53;5.80;99.90
19025;DHT22;9645;51.448;6.260;2023-12-22T00:38:20;5.80;99.90
19025;DHT22;9645;51.448;6.260;2023-12-22T00:40:49;5.80;99.90
19025;DHT22;9645;51.448;6.260;2023-12-22T00:43:17;5.90;99.90
19025;DHT22;9645;51.448;6.260;2023-12-22T00:45:45;5.90;99.90
19025;DHT22;9645;51.448;6.260;2023-12-22T00:48:12;5.90;99.90
19025;DHT22;9645;51.448;6.260;2023-12-22T00:50:40;5.90;99.90
19025;DHT22;9645;51.448;6.260;2023-12-22T00:53:07;5.90;99.90
19025;DHT22;9645;51.448;6.260;2023-12-22T00:55:36;5.90;99.90
19025;DHT22;9645;51.448;6.260;2023-12-22T00:58:05;5.90;99.90
19025;DHT22;9645;51.448;6.260;2023-12-22T01:00:32;5.80;99.90
19025;DHT22;9645;51.448;6.260;2023-12-22T01:03:00;5.80;99.90
19025;DHT22;9645;51.448;6.260;2023-12-22T01:05:30;5.80;99.90
19025;DHT22;9645;51.448;6.260;2023-12-22T01:07:57;5.80;99.90
19025;DHT22;9645;51.448;6.260;2023-12-22T01:10:24;5.80;99.90
19025;DHT22;9645;51.448;6.260;2023-12-22T01:12:52;5.80;99.90
19025;DHT22;9645;51.448;6.260;2023-12-22T01:15:20;5.80;99.90
19025;DHT22;9645;51.448;6.260;2023-12-22T01:17:48;5.80;99.90
19025;DHT22;9645;51.448;6.260;2023-12-22T01:20:15;5.80;99.90
19025;DHT22;9645;51.448;6.260;2023-12-22T01:22:43;5.90;99.90
19025;DHT22;9645;51.448;6.260;2023-12-22T01:25:10;5.80;99.90
19025;DHT22;9645;51.448;6.260;2023-12-22T01:27:37;5.80;99.90
19025;DHT22;9645;51.448;6.260;2023-12-22T01:30:05;5.80;99.90
19025;DHT22;9645;51.448;6.260;2023-12-22T01:32:34;5.80;99.90
19025;DHT22;9645;51.448;6.260;2023-12-22T01:35:02;5.80;99.90
19025;DHT22;9645;51.448;6.260;2023-12-22T01:37:34;5.80;99.90
19025;DHT22;9645;51.448;6.260;2023-12-22T01:40:02;5.70;99.90
19025;DHT22;9645;51.448;6.260;2023-12-22T01:42:29;5.80;99.90
19025;DHT22;9645;51.448;6.260;2023-12-22T01:44:56;5.80;99.90
19025;DHT22;9645;51.448;6.260;2023-12-22T01:47:23;5.80;99.90
19025;DHT22;9645;51.448;6.260;2023-12-22T01:49:52;5.80;99.90
19025;DHT22;9645;51.448;6.260;2023-12-22T01:52:19;5.80;99.90
19025;DHT22;9645;51.448;6.260;2023-12-22T01:54:46;5.80;99.90
19025;DHT22;9645;51.448;6.260;2023-12-22T01:57:16;5.70;99.90
19025;DHT22;9645;51.448;6.260;2023-12-22T01:59:45;5.80;99.90
19025;DHT22;9645;51.448;6.260;2023-12-22T02:02:13;5.80;99.90
19025;DHT22;9645;51.448;6.260;2023-12-22T02:04:40;5.80;99.90
19025;DHT22;9645;51.448;6.260;2023-12-22T02:07:09;5.90;99.90
19025;DHT22;9645;51.448;6.260;2023-12-22T02:09:36;5.90;99.90
19025;DHT22;9645;51.448;6.260;2023-12-22T02:12:04;5.70;99.90
19025;DHT22;9645;51.448;6.260;2023-12-22T02:14:31;5.60;99.90
19025;DHT22;9645;51.448;6.260;2023-12-22T02:17:06;5.40;99.90
19025;DHT22;9645;51.448;6.260;2023-12-22T02:19:42;5.30;99.90
19025;DHT22;9645;51.448;6.260;2023-12-22T02:22:12;5.20;99.90
19025;DHT22;9645;51.448;6.260;2023-12-22T02:24:41;5.30;99.90
19025;DHT22;9645;51.448;6.260;2023-12-22T02:27:21;5.40;99.90
19025;DHT22;9645;51.448;6.260;2023-12-22T02:29:53;5.30;99.90
19025;DHT22;9645;51.448;6.260;2023-12-22T02:32:23;5.30;99.90
19025;DHT22;9645;51.448;6.260;2023-12-22T02:34:53;5.20;99.90
19025;DHT22;9645;51.448;6.260;2023-12-22T02:37:22;5.20;99.90
19025;DHT22;9645;51.448;6.260;2023-12-22T02:39:52;5.00;99.90
19025;DHT22;9645;51.448;6.260;2023-12-22T02:42:20;5.00;99.90
19025;DHT22;9645;51.448;6.260;2023-12-22T02:44:50;4.90;99.90
19025;DHT22;9645;51.448;6.260;2023-12-22T02:47:18;4.80;99.90
19025;DHT22;9645;51.448;6.260;2023-12-22T02:49:45;4.70;99.90
19025;DHT22;9645;51.448;6.260;2023-12-22T02:52:12;4.50;99.90
19025;DHT22;9645;51.448;6.260;2023-12-22T02:54:38;4.40;99.90
19025;DHT22;9645;51.448;6.260;2023-12-22T02:57:08;4.40;99.90
19025;DHT22;9645;51.448;6.260;2023-12-22T02:59:36;4.30;99.90
19025;DHT22;9645;51.448;6.260;2023-12-22T03:02:04;4.30;99.90
19025;DHT22;9645;51.448;6.260;2023-12-22T03:04:30;4.20;99.90
19025;DHT22;9645;51.448;6.260;2023-12-22T03:06:57;4.20;99.90
19025;DHT22;9645;51.448;6.260;2023-12-22T03:09:24;4.10;99.90
19025;DHT22;9645;51.448;6.260;2023-12-22T03:11:51;4.10;99.90
19025;DHT22;9645;51.448;6.260;2023-12-22T03:14:21;4.00;99.90
19025;DHT22;9645;51.448;6.260;2023-12-22T03:19:16;4.00;99.90
19025;DHT22;9645;51.448;6.260;2023-12-22T03:21:42;4.00;99.90
19025;DHT22;9645;51.448;6.260;2023-12-22T03:24:09;4.00;99.90
19025;DHT22;9645;51.448;6.260;2023-12-22T03:26:36;4.00;99.90
19025;DHT22;9645;51.448;6.260;2023-12-22T03:29:03;4.00;99.90
19025;DHT22;9645;51.448;6.260;2023-12-22T03:31:32;4.10;99.90
19025;DHT22;9645;51.448;6.260;2023-12-22T03:33:59;4.20;99.90
19025;DHT22;9645;51.448;6.260;2023-12-22T03:36:25;4.30;99.90
19025;DHT22;9645;51.448;6.260;2023-12-22T03:38:52;4.40;99.90
19025;DHT22;9645;51.448;6.260;2023-12-22T03:41:19;4.60;99.90
19025;DHT22;9645;51.448;6.260;2023-12-22T03:43:46;4.70;99.90
19025;DHT22;9645;51.448;6.260;2023-12-22T03:46:13;4.80;99.90
19025;DHT22;9645;51.448;6.260;2023-12-22T03:48:42;4.90;99.90
19025;DHT22;9645;51.448;6.260;2023-12-22T03:51:08;5.10;99.90
19025;DHT22;9645;51.448;6.260;2023-12-22T03:53:36;5.20;99.90
19025;DHT22;9645;51.448;6.260;2023-12-22T03:56:03;5.30;99.90
19025;DHT22;9645;51.448;6.260;2023-12-22T03:58:30;5.50;99.90
19025;DHT22;9645;51.448;6.260;2023-12-22T04:00:57;5.60;99.90
19025;DHT22;9645;51.448;6.260;2023-12-22T04:03:24;5.70;99.90
19025;DHT22;9645;51.448;6.260;2023-12-22T04:05:53;5.70;99.90
19025;DHT22;9645;51.448;6.260;2023-12-22T04:08:20;5.80;99.90
19025;DHT22;9645;51.448;6.260;2023-12-22T04:10:47;5.80;99.90
19025;DHT22;9645;51.448;6.260;2023-12-22T04:13:14;5.80;99.90
19025;DHT22;9645;51.448;6.260;2023-12-22T04:15:41;5.70;99.90
19025;DHT22;9645;51.448;6.260;2023-12-22T04:18:08;5.90;99.90
19025;DHT22;9645;51.448;6.260;2023-12-22T04:20:35;5.90;99.90
19025;DHT22;9645;51.448;6.260;2023-12-22T04:23:03;6.00;99.90
19025;DHT22;9645;51.448;6.260;2023-12-22T04:25:30;6.10;99.90
19025;DHT22;9645;51.448;6.260;2023-12-22T04:27:57;6.10;99.90
19025;DHT22;9645;51.448;6.260;2023-12-22T04:30:24;6.10;99.90
19025;DHT22;9645;51.448;6.260;2023-12-22T04:32:52;6.10;99.90
19025;DHT22;9645;51.448;6.260;2023-12-22T04:35:19;6.10;99.90
19025;DHT22;9645;51.448;6.260;2023-12-22T04:37:46;6.10;99.90
19025;DHT22;9645;51.448;6.260;2023-12-22T04:40:14;6.20;99.90
19025;DHT22;9645;51.448;6.260;2023-12-22T04:42:42;6.20;99.90
19025;DHT22;9645;51.448;6.260;2023-12-22T04:45:09;6.30;99.90
19025;DHT22;9645;51.448;6.260;2023-12-22T04:47:36;6.40;99.90
19025;DHT22;9645;51.448;6.260;2023-12-22T04:50:03;6.40;99.90
19025;DHT22;9645;51.448;6.260;2023-12-22T04:52:30;6.50;99.90
19025;DHT22;9645;51.448;6.260;2023-12-22T04:54:57;6.50;99.90
19025;DHT22;9645;51.448;6.260;2023-12-22T04:57:25;6.60;99.90
19025;DHT22;9645;51.448;6.260;2023-12-22T04:59:52;6.60;99.90
19025;DHT22;9645;51.448;6.260;2023-12-22T05:02:19;6.70;99.90
19025;DHT22;9645;51.448;6.260;2023-12-22T05:04:46;6.60;99.90
19025;DHT22;9645;51.448;6.260;2023-12-22T05:07:13;6.70;99.90
19025;DHT22;9645;51.448;6.260;2023-12-22T05:09:42;6.70;95.70
19025;DHT22;9645;51.448;6.260;2023-12-22T05:12:09;6.80;46.30
19025;DHT22;9645;51.448;6.260;2023-12-22T05:14:37;6.90;1.00
19025;DHT22;9645;51.448;6.260;2023-12-22T05:17:04;6.90;1.00
19025;DHT22;9645;51.448;6.260;2023-12-22T05:19:31;7.00;1.00
19025;DHT22;9645;51.448;6.260;2023-12-22T05:21:58;7.00;1.00
19025;DHT22;9645;51.448;6.260;2023-12-22T05:24:25;7.00;1.00
19025;DHT22;9645;51.448;6.260;2023-12-22T05:26:53;7.10;1.00
19025;DHT22;9645;51.448;6.260;2023-12-22T05:29:20;7.00;1.00
19025;DHT22;9645;51.448;6.260;2023-12-22T05:31:48;7.10;1.00
19025;DHT22;9645;51.448;6.260;2023-12-22T05:34:15;7.10;1.00
19025;DHT22;9645;51.448;6.260;2023-12-22T05:36:42;7.10;1.00
19025;DHT22;9645;51.448;6.260;2023-12-22T05:39:09;7.20;1.00
19025;DHT22;9645;51.448;6.260;2023-12-22T05:41:36;7.10;1.00
19025;DHT22;9645;51.448;6.260;2023-12-22T05:44:03;7.20;1.00
19025;DHT22;9645;51.448;6.260;2023-12-22T05:46:31;7.10;1.00
19025;DHT22;9645;51.448;6.260;2023-12-22T05:49:03;7.10;1.00
19025;DHT22;9645;51.448;6.260;2023-12-22T05:51:36;7.10;1.00
19025;DHT22;9645;51.448;6.260;2023-12-22T05:54:03;7.10;1.00
19025;DHT22;9645;51.448;6.260;2023-12-22T05:56:30;7.10;1.00
19025;DHT22;9645;51.448;6.260;2023-12-22T05:58:58;7.10;1.00
19025;DHT22;9645;51.448;6.260;2023-12-22T06:01:25;7.00;1.00
19025;DHT22;9645;51.448;6.260;2023-12-22T06:03:52;7.00;1.00
19025;DHT22;9645;51.448;6.260;2023-12-22T06:06:21;7.00;1.00
19025;DHT22;9645;51.448;6.260;2023-12-22T06:08:48;7.00;1.00
19025;DHT22;9645;51.448;6.260;2023-12-22T06:11:15;7.00;1.00
19025;DHT22;9645;51.448;6.260;2023-12-22T06:13:42;7.00;1.00
19025;DHT22;9645;51.448;6.260;2023-12-22T06:16:12;7.10;1.00
19025;DHT22;9645;51.448;6.260;2023-12-22T06:18:39;7.00;1.00
19025;DHT22;9645;51.448;6.260;2023-12-22T06:21:08;7.10;1.00
19025;DHT22;9645;51.448;6.260;2023-12-22T06:23:36;7.10;1.00
19025;DHT22;9645;51.448;6.260;2023-12-22T06:26:08;7.20;1.00
19025;DHT22;9645;51.448;6.260;2023-12-22T06:28:35;7.20;1.00
19025;DHT22;9645;51.448;6.260;2023-12-22T06:31:04;7.30;1.00
19025;DHT22;9645;51.448;6.260;2023-12-22T06:33:30;7.30;1.00
19025;DHT22;9645;51.448;6.260;2023-12-22T06:35:58;7.30;1.00
19025;DHT22;9645;51.448;6.260;2023-12-22T06:38:24;7.30;1.00
19025;DHT22;9645;51.448;6.260;2023-12-22T06:40:53;7.30;1.00
19025;DHT22;9645;51.448;6.260;2023-12-22T06:43:20;7.20;1.00
19025;DHT22;9645;51.448;6.260;2023-12-22T06:45:47;7.20;1.00
19025;DHT22;9645;51.448;6.260;2023-12-22T06:48:14;7.20;1.00
19025;DHT22;9645;51.448;6.260;2023-12-22T06:50:41;7.20;14.50
19025;DHT22;9645;51.448;6.260;2023-12-22T06:53:10;7.20;58.00
19025;DHT22;9645;51.448;6.260;2023-12-22T06:55:37;7.20;95.40
19025;DHT22;9645;51.448;6.260;2023-12-22T06:58:07;7.20;99.90
19025;DHT22;9645;51.448;6.260;2023-12-22T07:00:34;7.20;99.90
19025;DHT22;9645;51.448;6.260;2023-12-22T07:03:03;7.20;99.90
19025;DHT22;9645;51.448;6.260;2023-12-22T07:05:35;7.20;99.90
19025;DHT22;9645;51.448;6.260;2023-12-22T07:08:06;7.30;99.90
19025;DHT22;9645;51.448;6.260;2023-12-22T07:10:33;7.30;99.90
19025;DHT22;9645;51.448;6.260;2023-12-22T07:13:00;7.30;99.90
19025;DHT22;9645;51.448;6.260;2023-12-22T07:15:28;7.30;99.90
19025;DHT22;9645;51.448;6.260;2023-12-22T07:17:55;7.30;99.90
19025;DHT22;9645;51.448;6.260;2023-12-22T07:20:22;7.30;99.90
19025;DHT22;9645;51.448;6.260;2023-12-22T07:22:49;7.20;99.90
19025;DHT22;9645;51.448;6.260;2023-12-22T07:25:16;7.40;99.90
19025;DHT22;9645;51.448;6.260;2023-12-22T07:27:46;7.30;99.90
19025;DHT22;9645;51.448;6.260;2023-12-22T07:30:14;7.40;99.90
19025;DHT22;9645;51.448;6.260;2023-12-22T07:32:45;7.30;99.90
19025;DHT22;9645;51.448;6.260;2023-12-22T07:35:15;7.30;99.90
19025;DHT22;9645;51.448;6.260;2023-12-22T07:37:42;7.80;99.90
19025;DHT22;9645;51.448;6.260;2023-12-22T07:40:10;7.20;99.90
19025;DHT22;9645;51.448;6.260;2023-12-22T07:42:38;7.20;99.90
19025;DHT22;9645;51.448;6.260;2023-12-22T07:45:06;7.10;99.90
19025;DHT22;9645;51.448;6.260;2023-12-22T07:47:34;7.30;99.90
19025;DHT22;9645;51.448;6.260;2023-12-22T07:50:05;7.30;99.90
19025;DHT22;9645;51.448;6.260;2023-12-22T07:52:34;7.90;99.90
19025;DHT22;9645;51.448;6.260;2023-12-22T07:57:32;7.50;99.90
19025;DHT22;9645;51.448;6.260;2023-12-22T07:59:59;7.50;99.90
19025;DHT22;9645;51.448;6.260;2023-12-22T08:02:26;7.50;99.90
19025;DHT22;9645;51.448;6.260;2023-12-22T08:04:53;7.50;99.90
19025;DHT22;9645;51.448;6.260;2023-12-22T08:07:22;7.60;99.90
19025;DHT22;9645;51.448;6.260;2023-12-22T08:09:50;7.60;99.90
19025;DHT22;9645;51.448;6.260;2023-12-22T08:12:18;7.70;99.90
19025;DHT22;9645;51.448;6.260;2023-12-22T08:14:45;7.80;99.90
19025;DHT22;9645;51.448;6.260;2023-12-22T08:17:12;7.80;99.90
19025;DHT22;9645;51.448;6.260;2023-12-22T08:19:39;7.80;99.90
19025;DHT22;9645;51.448;6.260;2023-12-22T08:22:08;7.90;99.90
19025;DHT22;9645;51.448;6.260;2023-12-22T08:24:37;7.90;99.90
19025;DHT22;9645;51.448;6.260;2023-12-22T08:27:05;8.00;99.90
19025;DHT22;9645;51.448;6.260;2023-12-22T08:29:32;8.00;99.90
19025;DHT22;9645;51.448;6.260;2023-12-22T08:31:59;8.00;99.90
19025;DHT22;9645;51.448;6.260;2023-12-22T08:34:26;8.10;99.90
19025;DHT22;9645;51.448;6.260;2023-12-22T08:36:53;8.10;99.90
19025;DHT22;9645;51.448;6.260;2023-12-22T08:39:20;8.10;99.90
19025;DHT22;9645;51.448;6.260;2023-12-22T08:41:52;8.20;99.90
19025;DHT22;9645;51.448;6.260;2023-12-22T08:44:20;8.20;99.90
19025;DHT22;9645;51.448;6.260;2023-12-22T08:46:48;8.20;99.90
19025;DHT22;9645;51.448;6.260;2023-12-22T08:49:16;8.20;99.90
19025;DHT22;9645;51.448;6.260;2023-12-22T08:51:43;8.20;99.90
19025;DHT22;9645;51.448;6.260;2023-12-22T08:54:10;8.30;99.90
19025;DHT22;9645;51.448;6.260;2023-12-22T08:56:38;8.30;99.90
19025;DHT22;9645;51.448;6.260;2023-12-22T08:59:13;8.30;99.90
19025;DHT22;9645;51.448;6.260;2023-12-22T09:01:40;8.30;99.90
19025;DHT22;9645;51.448;6.260;2023-12-22T09:04:09;8.40;99.90
19025;DHT22;9645;51.448;6.260;2023-12-22T09:06:37;8.40;99.90
19025;DHT22;9645;51.448;6.260;2023-12-22T09:09:04;8.50;99.90
19025;DHT22;9645;51.448;6.260;2023-12-22T09:11:31;8.50;99.90
19025;DHT22;9645;51.448;6.260;2023-12-22T09:13:58;8.50;99.90
19025;DHT22;9645;51.448;6.260;2023-12-22T09:16:27;8.60;99.90
19025;DHT22;9645;51.448;6.260;2023-12-22T09:18:54;8.60;99.90
19025;DHT22;9645;51.448;6.260;2023-12-22T09:21:21;8.50;99.90
19025;DHT22;9645;51.448;6.260;2023-12-22T09:23:48;8.50;99.90
19025;DHT22;9645;51.448;6.260;2023-12-22T09:26:16;8.60;99.90
19025;DHT22;9645;51.448;6.260;2023-12-22T09:28:43;8.60;99.90
19025;DHT22;9645;51.448;6.260;2023-12-22T09:31:11;8.60;99.90
19025;DHT22;9645;51.448;6.260;2023-12-22T09:33:40;8.60;99.90
19025;DHT22;9645;51.448;6.260;2023-12-22T09:36:07;8.70;99.90
19025;DHT22;9645;51.448;6.260;2023-12-22T09:38:34;8.80;99.90
19025;DHT22;9645;51.448;6.260;2023-12-22T09:41:02;8.80;99.90
19025;DHT22;9645;51.448;6.260;2023-12-22T09:43:29;8.80;99.90
19025;DHT22;9645;51.448;6.260;2023-12-22T09:45:58;8.80;99.90
19025;DHT22;9645;51.448;6.260;2023-12-22T09:48:26;8.80;99.90
19025;DHT22;9645;51.448;6.260;2023-12-22T09:50:56;8.90;99.90
19025;DHT22;9645;51.448;6.260;2023-12-22T09:53:24;8.90;99.90
19025;DHT22;9645;51.448;6.260;2023-12-22T09:55:53;9.00;99.90
19025;DHT22;9645;51.448;6.260;2023-12-22T09:58:21;9.00;99.90
19025;DHT22;9645;51.448;6.260;2023-12-22T10:00:50;9.10;99.90
19025;DHT22;9645;51.448;6.260;2023-12-22T10:03:19;9.10;99.90
19025;DHT22;9645;51.448;6.260;2023-12-22T10:05:47;9.10;99.90
19025;DHT22;9645;51.448;6.260;2023-12-22T10:08:17;9.00;99.90
19025;DHT22;9645;51.448;6.260;2023-12-22T10:10:47;9.00;99.90
19025;DHT22;9645;51.448;6.260;2023-12-22T10:13:17;9.00;99.90
19025;DHT22;9645;51.448;6.260;2023-12-22T10:15:45;8.90;99.90
19025;DHT22;9645;51.448;6.260;2023-12-22T10:18:13;8.90;99.90
19025;DHT22;9645;51.448;6.260;2023-12-22T10:20:40;8.90;99.90
19025;DHT22;9645;51.448;6.260;2023-12-22T10:23:07;8.90;99.90
19025;DHT22;9645;51.448;6.260;2023-12-22T10:25:36;8.90;99.90
19025;DHT22;9645;51.448;6.260;2023-12-22T10:28:03;9.00;99.90
19025;DHT22;9645;51.448;6.260;2023-12-22T10:30:31;9.00;99.90
19025;DHT22;9645;51.448;6.260;2023-12-22T10:32:59;9.00;99.90
19025;DHT22;9645;51.448;6.260;2023-12-22T10:35:26;9.00;99.90
19025;DHT22;9645;51.448;6.260;2023-12-22T10:37:55;9.00;99.90
19025;DHT22;9645;51.448;6.260;2023-12-22T10:40:23;9.10;99.90
19025;DHT22;9645;51.448;6.260;2023-12-22T10:42:52;9.20;99.90
19025;DHT22;9645;51.448;6.260;2023-12-22T10:45:19;9.20;99.90
19025;DHT22;9645;51.448;6.260;2023-12-22T10:47:48;9.20;99.90
19025;DHT22;9645;51.448;6.260;2023-12-22T10:50:19;9.30;99.90
19025;DHT22;9645;51.448;6.260;2023-12-22T10:52:49;9.40;99.90
19025;DHT22;9645;51.448;6.260;2023-12-22T10:55:16;9.40;99.90
19025;DHT22;9645;51.448;6.260;2023-12-22T10:57:46;9.50;99.90
19025;DHT22;9645;51.448;6.260;2023-12-22T11:00:15;9.50;99.90
19025;DHT22;9645;51.448;6.260;2023-12-22T11:02:43;9.60;99.90
19025;DHT22;9645;51.448;6.260;2023-12-22T11:05:14;9.60;99.90
19025;DHT22;9645;51.448;6.260;2023-12-22T11:07:47;9.70;99.90
19025;DHT22;9645;51.448;6.260;2023-12-22T11:10:18;9.80;99.90
19025;DHT22;9645;51.448;6.260;2023-12-22T11:12:47;9.90;99.90
19025;DHT22;9645;51.448;6.260;2023-12-22T11:15:16;9.90;99.90
19025;DHT22;9645;51.448;6.260;2023-12-22T11:17:44;9.90;99.90
19025;DHT22;9645;51.448;6.260;2023-12-22T11:20:13;9.90;99.90
19025;DHT22;9645;51.448;6.260;2023-12-22T11:22:42;9.90;99.90
19025;DHT22;9645;51.448;6.260;2023-12-22T11:25:10;9.90;99.90
19025;DHT22;9645;51.448;6.260;2023-12-22T11:27:38;10.00;99.90
19025;DHT22;9645;51.448;6.260;2023-12-22T11:30:06;10.00;99.90
19025;DHT22;9645;51.448;6.260;2023-12-22T11:32:36;10.00;99.90
19025;DHT22;9645;51.448;6.260;2023-12-22T11:35:04;10.00;99.90
19025;DHT22;9645;51.448;6.260;2023-12-22T11:37:35;10.00;99.90
19025;DHT22;9645;51.448;6.260;2023-12-22T11:40:03;10.00;99.90
19025;DHT22;9645;51.448;6.260;2023-12-22T11:42:35;10.00;99.90
19025;DHT22;9645;51.448;6.260;2023-12-22T11:45:05;10.00;99.90
19025;DHT22;9645;51.448;6.260;2023-12-22T11:47:32;10.00;99.90
19025;DHT22;9645;51.448;6.260;2023-12-22T11:50:01;10.10;99.90
19025;DHT22;9645;51.448;6.260;2023-12-22T11:52:28;10.10;99.90
19025;DHT22;9645;51.448;6.260;2023-12-22T11:54:56;10.10;99.10
19025;DHT22;9645;51.448;6.260;2023-12-22T11:57:34;10.10;98.00
19025;DHT22;9645;51.448;6.260;2023-12-22T12:00:05;10.10;99.90
19025;DHT22;9645;51.448;6.260;2023-12-22T12:02:33;10.10;99.90
19025;DHT22;9645;51.448;6.260;2023-12-22T12:05:03;10.20;99.90
19025;DHT22;9645;51.448;6.260;2023-12-22T12:07:38;10.20;87.90
19025;DHT22;9645;51.448;6.260;2023-12-22T12:10:07;10.30;61.90
19025;DHT22;9645;51.448;6.260;2023-12-22T12:12:34;10.30;60.10
19025;DHT22;9645;51.448;6.260;2023-12-22T12:15:13;10.30;44.90
19025;DHT22;9645;51.448;6.260;2023-12-22T12:17:48;10.30;32.40
19025;DHT22;9645;51.448;6.260;2023-12-22T12:20:18;10.30;25.50
19025;DHT22;9645;51.448;6.260;2023-12-22T12:22:46;10.30;44.70
19025;DHT22;9645;51.448;6.260;2023-12-22T12:25:13;10.30;56.60
19025;DHT22;9645;51.448;6.260;2023-12-22T12:27:40;10.40;43.10
19025;DHT22;9645;51.448;6.260;2023-12-22T12:30:11;10.30;24.40
19025;DHT22;9645;51.448;6.260;2023-12-22T12:32:41;10.40;8.70
19025;DHT22;9645;51.448;6.260;2023-12-22T12:35:10;10.30;1.00
19025;DHT22;9645;51.448;6.260;2023-12-22T12:37:46;10.30;1.50
19025;DHT22;9645;51.448;6.260;2023-12-22T12:40:18;10.20;38.90
19025;DHT22;9645;51.448;6.260;2023-12-22T12:42:47;10.10;56.30
19025;DHT22;9645;51.448;6.260;2023-12-22T12:45:15;10.10;89.30
19025;DHT22;9645;51.448;6.260;2023-12-22T12:47:41;10.00;99.90
19025;DHT22;9645;51.448;6.260;2023-12-22T12:50:08;10.10;97.20
19025;DHT22;9645;51.448;6.260;2023-12-22T12:52:38;10.10;83.60
19025;DHT22;9645;51.448;6.260;2023-12-22T12:55:06;10.10;91.80
19025;DHT22;9645;51.448;6.260;2023-12-22T12:57:34;10.20;86.00
19025;DHT22;9645;51.448;6.260;2023-12-22T13:00:01;10.20;51.60
19025;DHT22;9645;51.448;6.260;2023-12-22T13:02:29;9.70;50.50
19025;DHT22;9645;51.448;6.260;2023-12-22T13:04:56;10.30;52.60
19025;DHT22;9645;51.448;6.260;2023-12-22T13:07:26;10.20;54.60
19025;DHT22;9645;51.448;6.260;2023-12-22T13:09:54;10.10;99.90
19025;DHT22;9645;51.448;6.260;2023-12-22T13:12:24;10.00;99.90
19025;DHT22;9645;51.448;6.260;2023-12-22T13:14:52;10.00;99.90
19025;DHT22;9645;51.448;6.260;2023-12-22T13:17:20;9.90;99.90
19025;DHT22;9645;51.448;6.260;2023-12-22T13:19:47;9.90;99.90
19025;DHT22;9645;51.448;6.260;2023-12-22T13:22:17;9.90;99.90
19025;DHT22;9645;51.448;6.260;2023-12-22T13:24:56;10.00;99.90
19025;DHT22;9645;51.448;6.260;2023-12-22T13:27:24;10.00;99.90
19025;DHT22;9645;51.448;6.260;2023-12-22T13:29:52;10.10;99.90
19025;DHT22;9645;51.448;6.260;2023-12-22T13:32:21;10.10;99.90
19025;DHT22;9645;51.448;6.260;2023-12-22T13:34:50;10.10;99.90
19025;DHT22;9645;51.448;6.260;2023-12-22T13:37:21;10.20;99.90
19025;DHT22;9645;51.448;6.260;2023-12-22T13:39:50;10.10;97.10
19025;DHT22;9645;51.448;6.260;2023-12-22T13:42:29;10.20;92.80
19025;DHT22;9645;51.448;6.260;2023-12-22T13:44:57;10.10;93.30
19025;DHT22;9645;51.448;6.260;2023-12-22T13:47:25;10.10;91.50
19025;DHT22;9645;51.448;6.260;2023-12-22T13:49:55;10.20;79.60
19025;DHT22;9645;51.448;6.260;2023-12-22T13:52:27;10.20;77.90
19025;DHT22;9645;51.448;6.260;2023-12-22T13:54:58;10.10;64.40
19025;DHT22;9645;51.448;6.260;2023-12-22T13:57:28;10.20;61.70
19025;DHT22;9645;51.448;6.260;2023-12-22T13:59:55;10.10;87.70
19025;DHT22;9645;51.448;6.260;2023-12-22T14:02:23;10.10;99.90
19025;DHT22;9645;51.448;6.260;2023-12-22T14:04:50;9.90;99.90
19025;DHT22;9645;51.448;6.260;2023-12-22T14:07:17;9.90;99.90
19025;DHT22;9645;51.448;6.260;2023-12-22T14:09:44;9.80;99.90
19025;DHT22;9645;51.448;6.260;2023-12-22T14:12:12;9.80;99.90
19025;DHT22;9645;51.448;6.260;2023-12-22T14:14:41;9.80;99.90
19025;DHT22;9645;51.448;6.260;2023-12-22T14:17:08;9.80;99.90
19025;DHT22;9645;51.448;6.260;2023-12-22T14:19:35;9.80;99.90
19025;DHT22;9645;51.448;6.260;2023-12-22T14:22:02;9.80;99.90
19025;DHT22;9645;51.448;6.260;2023-12-22T14:24:29;9.70;99.90
19025;DHT22;9645;51.448;6.260;2023-12-22T14:26:56;9.80;99.90
19025;DHT22;9645;51.448;6.260;2023-12-22T14:29:23;9.80;99.90
19025;DHT22;9645;51.448;6.260;2023-12-22T14:31:52;9.80;99.90
19025;DHT22;9645;51.448;6.260;2023-12-22T14:34:19;9.70;99.90
19025;DHT22;9645;51.448;6.260;2023-12-22T14:36:46;9.70;99.90
19025;DHT22;9645;51.448;6.260;2023-12-22T14:39:13;9.70;99.90
19025;DHT22;9645;51.448;6.260;2023-12-22T14:41:40;9.70;99.90
19025;DHT22;9645;51.448;6.260;2023-12-22T14:44:07;9.70;99.90
19025;DHT22;9645;51.448;6.260;2023-12-22T14:46:37;9.70;99.90
19025;DHT22;9645;51.448;6.260;2023-12-22T14:49:06;9.70;99.90
19025;DHT22;9645;51.448;6.260;2023-12-22T14:51:37;9.70;99.90
19025;DHT22;9645;51.448;6.260;2023-12-22T14:54:04;9.70;99.90
19025;DHT22;9645;51.448;6.260;2023-12-22T14:56:37;9.70;99.90
19025;DHT22;9645;51.448;6.260;2023-12-22T14:59:05;9.70;99.90
19025;DHT22;9645;51.448;6.260;2023-12-22T15:01:32;9.80;99.90
19025;DHT22;9645;51.448;6.260;2023-12-22T15:03:59;9.80;99.90
19025;DHT22;9645;51.448;6.260;2023-12-22T15:06:29;9.80;99.90
19025;DHT22;9645;51.448;6.260;2023-12-22T15:08:56;9.80;99.90
19025;DHT22;9645;51.448;6.260;2023-12-22T15:11:24;9.70;99.90
19025;DHT22;9645;51.448;6.260;2023-12-22T15:13:51;9.70;99.90
19025;DHT22;9645;51.448;6.260;2023-12-22T15:16:18;9.60;99.90
19025;DHT22;9645;51.448;6.260;2023-12-22T15:18:45;9.60;99.90
19025;DHT22;9645;51.448;6.260;2023-12-22T15:21:19;9.60;99.90
19025;DHT22;9645;51.448;6.260;2023-12-22T15:23:48;9.60;99.90
19025;DHT22;9645;51.448;6.260;2023-12-22T15:26:20;9.50;99.90
19025;DHT22;9645;51.448;6.260;2023-12-22T15:28:47;9.50;99.90
19025;DHT22;9645;51.448;6.260;2023-12-22T15:31:14;9.50;99.90
19025;DHT22;9645;51.448;6.260;2023-12-22T15:33:41;9.50;99.90
19025;DHT22;9645;51.448;6.260;2023-12-22T15:36:08;9.50;99.90
19025;DHT22;9645;51.448;6.260;2023-12-22T15:38:35;9.50;99.90
19025;DHT22;9645;51.448;6.260;2023-12-22T15:41:03;9.50;99.90
19025;DHT22;9645;51.448;6.260;2023-12-22T15:43:30;9.50;99.90
19025;DHT22;9645;51.448;6.260;2023-12-22T15:45:57;9.50;99.90
19025;DHT22;9645;51.448;6.260;2023-12-22T15:48:24;9.50;99.90
19025;DHT22;9645;51.448;6.260;2023-12-22T15:50:51;9.50;99.90
19025;DHT22;9645;51.448;6.260;2023-12-22T15:53:18;9.40;99.90
19025;DHT22;9645;51.448;6.260;2023-12-22T15:55:45;9.30;99.90
19025;DHT22;9645;51.448;6.260;2023-12-22T15:58:14;9.20;99.90
19025;DHT22;9645;51.448;6.260;2023-12-22T16:00:41;9.20;99.90
19025;DHT22;9645;51.448;6.260;2023-12-22T16:03:08;9.10;99.90
19025;DHT22;9645;51.448;6.260;2023-12-22T16:05:35;9.20;99.90
19025;DHT22;9645;51.448;6.260;2023-12-22T16:08:02;9.10;99.90
19025;DHT22;9645;51.448;6.260;2023-12-22T16:10:28;9.10;99.90
19025;DHT22;9645;51.448;6.260;2023-12-22T16:12:55;9.10;99.90